Terminal Aerodrome Forecast
Issued by NWS Omaha/Valley, NE

Home | Current Version | Previous Version | Text Only | Print | Product List | Glossary Off
Versions: 1 2 3 4 5 6 7 8 9 10 11 12 13 14 15 16 17 18 19 20 21 22 23 24 25 26 27 28 29 30 31 32 33 34 35

000
FTUS43 KOAX 191133
TAFOFK
TAF
KOFK 191133Z 1912/2012 13008KT 5SM BR BKN006
     FM191400 15009KT 5SM BR SCT050
     FM191500 15015KT P6SM SCT120
     FM191800 16018G28KT P6SM SCT250
     FM200300 16015G23KT P6SM FEW250 WS020/17045KT
     FM200800 29010KT P6SM FEW200=

USA.gov is the U.S. government's official web portal to all federal, state and local government web resources and services.